createdAt,value
2022-09-28T00:01:48.752Z,96.40
2022-09-28T00:04:34.034Z,96.50
2022-09-28T00:07:19.507Z,96.50
2022-09-28T00:10:05.621Z,96.60
2022-09-28T00:12:51.919Z,96.70
2022-09-28T00:15:37.390Z,96.70
2022-09-28T00:18:23.236Z,96.80
2022-09-28T00:21:24.026Z,96.80
2022-09-28T00:24:18.835Z,96.90
2022-09-28T00:27:04.524Z,96.90
2022-09-28T00:29:50.168Z,96.90
2022-09-28T00:32:35.740Z,97.10
2022-09-28T00:35:28.303Z,97.30
2022-09-28T00:38:16.787Z,97.70
2022-09-28T00:41:02.391Z,97.90
2022-09-28T00:43:47.921Z,98.00
2022-09-28T00:46:36.155Z,98.00
2022-09-28T00:49:30.968Z,97.90
2022-09-28T00:52:28.112Z,97.70
2022-09-28T00:55:17.988Z,97.80
2022-09-28T00:58:06.332Z,97.80
2022-09-28T01:00:54.587Z,97.80
2022-09-28T01:03:47.828Z,97.90
2022-09-28T01:06:35.897Z,97.80
2022-09-28T01:09:22.174Z,97.80
2022-09-28T01:12:08.063Z,97.80
2022-09-28T01:14:53.476Z,97.90
2022-09-28T01:18:14.899Z,97.90
2022-09-28T01:21:19.071Z,97.60
2022-09-28T01:24:37.988Z,97.50
2022-09-28T01:27:26.871Z,97.50
2022-09-28T01:30:21.528Z,97.40
2022-09-28T01:33:15.910Z,97.40
2022-09-28T01:36:22.914Z,97.40
2022-09-28T01:39:14.969Z,97.50
2022-09-28T01:42:05.857Z,97.50
2022-09-28T01:44:54.535Z,97.50
2022-09-28T01:47:41.276Z,97.50
2022-09-28T01:50:31.097Z,97.50
2022-09-28T01:53:30.572Z,97.40
2022-09-28T01:56:25.993Z,97.60
2022-09-28T01:59:19.922Z,97.80
2022-09-28T02:02:18.748Z,98.00
2022-09-28T02:05:19.263Z,97.90
2022-09-28T02:08:17.685Z,98.00
2022-09-28T02:11:13.101Z,97.80
2022-09-28T02:14:08.217Z,97.70
2022-09-28T02:16:56.123Z,97.90
2022-09-28T02:19:48.461Z,97.80
2022-09-28T02:23:00.143Z,97.90
2022-09-28T02:25:55.874Z,97.50
2022-09-28T02:28:41.291Z,97.50
2022-09-28T02:31:28.072Z,97.40
2022-09-28T02:34:13.932Z,97.90
2022-09-28T02:37:01.879Z,97.60
2022-09-28T02:39:47.207Z,97.60
2022-09-28T02:42:59.915Z,97.30
2022-09-28T02:45:45.502Z,97.40
2022-09-28T02:48:55.832Z,97.40
2022-09-28T02:52:00.961Z,97.70
2022-09-28T02:55:25.431Z,97.70
2022-09-28T02:58:39.952Z,97.70
2022-09-28T03:01:26.928Z,97.60
2022-09-28T03:04:40.788Z,97.20
2022-09-28T03:07:36.775Z,97.10
2022-09-28T03:10:44.109Z,96.70
2022-09-28T03:13:30.979Z,96.50
2022-09-28T03:16:19.739Z,96.40
2022-09-28T03:19:07.630Z,96.20
2022-09-28T03:21:53.291Z,96.20
2022-09-28T03:24:39.324Z,96.50
2022-09-28T03:27:24.805Z,97.00
2022-09-28T03:30:11.815Z,97.50
2022-09-28T03:33:00.434Z,97.50
2022-09-28T03:35:50.495Z,97.60
2022-09-28T03:38:36.347Z,97.50
2022-09-28T03:41:23.378Z,97.30
2022-09-28T03:44:09.133Z,97.00
2022-09-28T03:46:57.674Z,97.10
2022-09-28T03:49:49.814Z,97.20
2022-09-28T03:52:35.211Z,97.20
2022-09-28T03:55:20.745Z,97.30
2022-09-28T03:58:06.115Z,97.40
2022-09-28T04:00:51.830Z,97.50
2022-09-28T04:03:37.131Z,97.60
2022-09-28T04:06:33.228Z,97.60
2022-09-28T04:09:18.744Z,97.50
2022-09-28T04:12:04.728Z,97.50
2022-09-28T04:14:51.485Z,97.50
2022-09-28T04:17:40.104Z,97.50
2022-09-28T04:20:30.571Z,97.30
2022-09-28T04:23:20.393Z,97.00
2022-09-28T04:26:08.292Z,96.90
2022-09-28T04:29:12.144Z,96.80
2022-09-28T04:32:02.620Z,96.90
2022-09-28T04:34:57.211Z,96.90
2022-09-28T04:37:42.695Z,96.90
2022-09-28T04:40:29.781Z,96.70
2022-09-28T04:43:18.017Z,96.90
2022-09-28T04:46:06.982Z,97.00
2022-09-28T04:49:00.412Z,97.30
2022-09-28T04:52:08.874Z,97.50
2022-09-28T04:54:54.048Z,97.80
2022-09-28T04:57:40.236Z,97.40
2022-09-28T05:00:30.261Z,97.30
2022-09-28T05:03:25.925Z,97.60
2022-09-28T05:06:35.092Z,98.00
2022-09-28T05:09:24.191Z,98.10
2022-09-28T05:12:10.449Z,97.90
2022-09-28T05:14:56.808Z,97.90
2022-09-28T05:17:42.020Z,98.00
2022-09-28T05:20:47.539Z,97.90
2022-09-28T05:23:34.559Z,97.90
2022-09-28T05:26:20.512Z,97.90
2022-09-28T05:29:05.829Z,97.80
2022-09-28T05:32:11.373Z,97.80
2022-09-28T05:35:11.859Z,97.90
2022-09-28T05:38:05.513Z,97.90
2022-09-28T05:40:52.307Z,97.90
2022-09-28T05:43:38.549Z,97.90
2022-09-28T05:46:24.800Z,97.80
2022-09-28T05:49:10.763Z,97.90
2022-09-28T05:51:56.256Z,97.80
2022-09-28T05:54:42.097Z,97.90
2022-09-28T05:57:30.401Z,97.80
2022-09-28T06:00:16.203Z,97.60
2022-09-28T06:03:14.542Z,97.50
2022-09-28T06:06:03.310Z,97.50
2022-09-28T06:08:50.035Z,97.70
2022-09-28T06:11:54.287Z,97.80
2022-09-28T06:14:50.109Z,97.90
2022-09-28T06:17:35.420Z,97.90
2022-09-28T06:20:55.645Z,97.80
2022-09-28T06:23:50.616Z,97.50
2022-09-28T06:26:37.007Z,97.30
2022-09-28T06:29:23.600Z,97.30
2022-09-28T06:32:09.515Z,97.30
2022-09-28T06:34:57.168Z,97.40
2022-09-28T06:37:47.696Z,97.30
2022-09-28T06:40:33.597Z,97.30
2022-09-28T06:43:18.980Z,97.30
2022-09-28T06:46:24.469Z,97.30
2022-09-28T06:49:30.206Z,97.50
2022-09-28T06:52:34.487Z,97.50
2022-09-28T06:55:50.250Z,97.70
2022-09-28T06:58:36.221Z,97.80
2022-09-28T07:01:21.897Z,97.60
2022-09-28T07:04:23.928Z,97.80
2022-09-28T07:07:28.355Z,97.90
2022-09-28T07:10:44.925Z,98.20
2022-09-28T07:13:56.800Z,98.10
2022-09-28T07:17:10.301Z,97.60
2022-09-28T07:19:52.829Z,97.90
2022-09-28T07:22:43.326Z,97.20
2022-09-28T07:25:33.071Z,97.20
2022-09-28T07:28:40.484Z,97.00
2022-09-28T07:31:54.879Z,96.70
2022-09-28T07:34:50.200Z,96.50
2022-09-28T07:37:46.558Z,96.40
2022-09-28T07:40:51.782Z,96.30
2022-09-28T07:43:39.603Z,95.90
2022-09-28T07:46:25.265Z,95.50
2022-09-28T07:49:19.296Z,95.50
2022-09-28T07:52:14.084Z,95.30
2022-09-28T07:55:26.604Z,95.50
2022-09-28T07:58:32.964Z,95.70
2022-09-28T08:01:32.044Z,95.60
2022-09-28T08:04:18.556Z,95.60
2022-09-28T08:07:12.459Z,95.60
2022-09-28T08:09:58.700Z,95.20
2022-09-28T08:12:47.168Z,94.90
2022-09-28T08:16:00.141Z,95.10
2022-09-28T08:18:52.837Z,95.00
2022-09-28T08:21:47.758Z,94.80
2022-09-28T08:24:33.025Z,95.20
2022-09-28T08:27:21.532Z,94.90
2022-09-28T08:30:07.695Z,94.40
2022-09-28T08:33:07.476Z,94.40
2022-09-28T08:36:02.703Z,94.20
2022-09-28T08:39:14.141Z,94.00
2022-09-28T08:42:41.745Z,93.60
2022-09-28T08:45:48.205Z,93.60
2022-09-28T08:49:25.086Z,94.10
2022-09-28T08:52:40.358Z,93.80
2022-09-28T08:55:45.809Z,93.40
2022-09-28T08:58:37.734Z,93.20
2022-09-28T09:01:27.201Z,93.30
2022-09-28T09:04:13.969Z,92.50
2022-09-28T09:07:31.878Z,92.70
2022-09-28T09:10:34.003Z,93.40
2022-09-28T09:13:55.865Z,93.20
2022-09-28T09:17:01.694Z,92.50
2022-09-28T09:20:30.087Z,91.70
2022-09-28T09:23:29.668Z,91.60
2022-09-28T09:26:22.495Z,90.30
2022-09-28T09:29:32.986Z,90.60
2022-09-28T09:32:47.525Z,90.00
2022-09-28T09:35:42.593Z,86.90
2022-09-28T09:39:18.515Z,87.30
2022-09-28T09:42:49.035Z,88.00
2022-09-28T09:46:12.014Z,88.30
2022-09-28T09:49:26.353Z,87.50
2022-09-28T09:52:18.694Z,86.20
2022-09-28T09:55:14.665Z,86.80
2022-09-28T09:58:38.616Z,86.40
2022-09-28T10:02:03.497Z,86.40
2022-09-28T10:05:07.429Z,86.70
2022-09-28T10:08:02.868Z,86.70
2022-09-28T10:10:54.062Z,87.10
2022-09-28T10:13:41.060Z,87.20
2022-09-28T10:16:48.482Z,86.00
2022-09-28T10:19:43.592Z,86.10
2022-09-28T10:22:49.411Z,85.00
2022-09-28T10:25:39.076Z,84.90
2022-09-28T10:28:50.806Z,83.80
2022-09-28T10:31:48.908Z,84.60
2022-09-28T10:34:50.280Z,82.60
2022-09-28T10:37:59.357Z,80.00
2022-09-28T10:41:17.407Z,79.10
2022-09-28T10:44:18.505Z,78.40
2022-09-28T10:47:31.484Z,78.60
2022-09-28T10:50:28.733Z,73.70
2022-09-28T10:53:21.857Z,77.20
2022-09-28T10:56:28.628Z,74.70
2022-09-28T10:59:28.707Z,74.20
2022-09-28T11:02:36.350Z,74.50
2022-09-28T11:05:31.478Z,71.20
2022-09-28T11:08:24.490Z,67.60
2022-09-28T11:11:15.626Z,68.20
2022-09-28T11:14:03.817Z,66.40
2022-09-28T11:17:16.787Z,66.10
2022-09-28T11:20:27.876Z,62.90
2022-09-28T11:23:24.376Z,60.70
2022-09-28T11:26:18.438Z,59.30
2022-09-28T11:29:08.670Z,60.60
2022-09-28T11:32:06.367Z,60.60
2022-09-28T11:35:07.088Z,61.20
2022-09-28T11:38:37.962Z,60.10
2022-09-28T11:41:45.983Z,59.10
2022-09-28T11:44:44.745Z,59.10
2022-09-28T11:47:33.639Z,59.40
2022-09-28T11:50:45.374Z,59.70
2022-09-28T11:53:50.447Z,59.70
2022-09-28T11:56:41.915Z,59.70
2022-09-28T11:59:33.195Z,60.20
2022-09-28T12:03:03.778Z,60.20
2022-09-28T12:05:56.411Z,60.80
2022-09-28T12:08:54.118Z,60.80
2022-09-28T12:12:15.574Z,60.50
2022-09-28T12:15:14.056Z,72.80
2022-09-28T12:18:13.791Z,72.70
2022-09-28T12:21:25.339Z,77.50
2022-09-28T12:24:17.068Z,82.40
2022-09-28T12:27:20.957Z,86.60
2022-09-28T12:30:12.841Z,88.60
2022-09-28T12:33:15.385Z,90.60
2022-09-28T12:36:17.932Z,91.60
2022-09-28T12:39:18.648Z,91.20
2022-09-28T12:42:29.943Z,92.00
2022-09-28T12:45:24.384Z,92.40
2022-09-28T12:48:36.289Z,92.60
2022-09-28T12:51:41.457Z,93.30
2022-09-28T12:54:56.641Z,93.90
2022-09-28T12:57:45.000Z,94.10
2022-09-28T13:00:40.280Z,94.40
2022-09-28T13:03:57.002Z,94.80
2022-09-28T13:07:19.533Z,94.90
2022-09-28T13:10:12.450Z,95.10
2022-09-28T13:13:34.606Z,95.20
2022-09-28T13:16:29.453Z,95.70
2022-09-28T13:19:20.644Z,96.10
2022-09-28T13:22:47.131Z,96.70
2022-09-28T13:25:36.310Z,97.50
2022-09-28T13:28:26.980Z,98.10
2022-09-28T13:31:20.144Z,98.50
2022-09-28T13:34:07.687Z,97.90
2022-09-28T13:37:29.501Z,98.00
2022-09-28T13:40:15.210Z,98.80
2022-09-28T13:43:24.029Z,99.40
2022-09-28T13:46:23.677Z,99.50
2022-09-28T13:49:18.357Z,99.70
2022-09-28T13:52:32.091Z,99.90
2022-09-28T13:56:03.151Z,99.90
2022-09-28T13:58:55.144Z,99.80
2022-09-28T14:02:07.133Z,99.80
2022-09-28T14:04:55.193Z,99.50
2022-09-28T14:07:40.653Z,99.70
2022-09-28T14:10:47.033Z,99.80
2022-09-28T14:13:41.515Z,99.80
2022-09-28T14:16:32.579Z,99.70
2022-09-28T14:19:26.451Z,99.90
2022-09-28T14:22:30.247Z,99.50
2022-09-28T14:25:24.408Z,98.90
2022-09-28T14:28:29.473Z,98.40
2022-09-28T14:31:24.615Z,97.90
2022-09-28T14:34:25.579Z,97.40
2022-09-28T14:37:58.455Z,96.90
2022-09-28T14:41:15.126Z,96.40
2022-09-28T14:44:16.653Z,94.30
2022-09-28T14:47:49.943Z,94.10
2022-09-28T14:50:35.514Z,92.70
2022-09-28T14:53:24.030Z,93.40
2022-09-28T14:56:09.499Z,92.00
2022-09-28T14:58:58.304Z,81.60
2022-09-28T15:01:50.772Z,75.40
2022-09-28T15:04:46.055Z,71.70
2022-09-28T15:07:53.190Z,71.90
2022-09-28T15:10:50.196Z,69.10
2022-09-28T15:13:35.681Z,65.00
2022-09-28T15:16:26.502Z,62.40
2022-09-28T15:19:30.730Z,61.30
2022-09-28T15:22:20.835Z,55.60
2022-09-28T15:25:14.986Z,56.90
2022-09-28T15:28:22.160Z,57.10
2022-09-28T15:31:17.382Z,56.50
2022-09-28T15:34:22.098Z,53.30
2022-09-28T15:37:11.612Z,51.40
2022-09-28T15:40:00.120Z,53.10
2022-09-28T15:42:48.596Z,51.70
2022-09-28T15:45:39.946Z,53.40
2022-09-28T15:48:40.999Z,53.90
2022-09-28T15:51:28.299Z,58.00
2022-09-28T15:54:19.550Z,57.40
2022-09-28T15:57:07.955Z,52.50
2022-09-28T15:59:59.476Z,50.50
2022-09-28T16:03:32.266Z,48.30
2022-09-28T16:06:18.665Z,46.00
2022-09-28T16:09:04.136Z,47.40
2022-09-28T16:11:50.784Z,43.60
2022-09-28T16:14:36.179Z,44.00
2022-09-28T16:17:33.881Z,43.80
2022-09-28T16:20:36.302Z,43.90
2022-09-28T16:23:33.157Z,45.20
2022-09-28T16:26:29.842Z,42.50
2022-09-28T16:29:40.343Z,42.60
2022-09-28T16:32:25.494Z,41.90
2022-09-28T16:35:10.909Z,42.80
2022-09-28T16:38:23.012Z,42.40
2022-09-28T16:41:09.062Z,45.00
2022-09-28T16:43:59.357Z,43.10
2022-09-28T16:46:52.251Z,43.00
2022-09-28T16:49:39.892Z,45.70
2022-09-28T16:52:43.639Z,46.30
2022-09-28T16:55:39.983Z,50.00
2022-09-28T16:58:27.842Z,53.10
2022-09-28T17:01:16.324Z,55.60
2022-09-28T17:04:01.939Z,57.60
2022-09-28T17:06:49.321Z,58.80
2022-09-28T17:09:37.904Z,60.60
2022-09-28T17:12:28.951Z,63.20
2022-09-28T17:15:15.791Z,64.90
2022-09-28T17:18:01.104Z,65.90
2022-09-28T17:21:03.426Z,67.10
2022-09-28T17:23:50.199Z,68.60
2022-09-28T17:26:36.131Z,70.00
2022-09-28T17:29:23.631Z,70.80
2022-09-28T17:32:17.530Z,71.90
2022-09-28T17:35:23.086Z,73.20
2022-09-28T17:38:18.683Z,74.20
2022-09-28T17:41:04.126Z,75.20
2022-09-28T17:43:49.847Z,75.80
2022-09-28T17:46:40.710Z,76.60
2022-09-28T17:49:26.435Z,76.90
2022-09-28T17:52:11.675Z,77.50
2022-09-28T17:54:56.875Z,78.10
2022-09-28T17:57:42.403Z,78.40
2022-09-28T18:00:28.822Z,79.10
2022-09-28T18:03:24.830Z,79.50
2022-09-28T18:06:25.174Z,79.90
2022-09-28T18:09:16.687Z,80.70
2022-09-28T18:12:04.919Z,81.10
2022-09-28T18:14:50.552Z,81.30
2022-09-28T18:17:36.655Z,81.80
2022-09-28T18:20:22.168Z,82.10
2022-09-28T18:23:07.568Z,82.60
2022-09-28T18:25:56.107Z,82.80
2022-09-28T18:28:42.019Z,83.20
2022-09-28T18:31:27.931Z,83.70
2022-09-28T18:34:13.785Z,83.80
2022-09-28T18:36:59.000Z,84.10
2022-09-28T18:39:45.430Z,84.70
2022-09-28T18:42:37.732Z,85.10
2022-09-28T18:45:23.097Z,85.50
2022-09-28T18:48:08.827Z,85.60
2022-09-28T18:50:54.134Z,86.00
2022-09-28T18:53:43.572Z,86.30
2022-09-28T18:56:29.099Z,86.70
2022-09-28T18:59:17.498Z,87.10
2022-09-28T19:02:03.399Z,87.30
2022-09-28T19:04:48.565Z,87.60
2022-09-28T19:07:35.441Z,88.00
2022-09-28T19:10:22.215Z,88.40
2022-09-28T19:13:07.734Z,89.20
2022-09-28T19:15:56.363Z,89.70
2022-09-28T19:18:41.968Z,90.00
2022-09-28T19:21:27.365Z,90.20
2022-09-28T19:24:18.323Z,90.40
2022-09-28T19:27:03.939Z,90.70
2022-09-28T19:29:50.376Z,90.90
2022-09-28T19:32:42.907Z,91.20
2022-09-28T19:35:28.070Z,91.40
2022-09-28T19:38:13.648Z,91.70
2022-09-28T19:40:59.726Z,91.90
2022-09-28T19:43:44.945Z,92.00
2022-09-28T19:46:33.412Z,92.10
2022-09-28T19:49:22.399Z,92.30
2022-09-28T19:52:15.681Z,92.30
2022-09-28T19:55:01.742Z,92.30
2022-09-28T19:57:47.980Z,92.30
2022-09-28T20:00:34.053Z,92.40
2022-09-28T20:03:38.975Z,92.60
2022-09-28T20:06:25.520Z,92.60
2022-09-28T20:09:11.100Z,92.70
2022-09-28T20:11:57.169Z,92.90
2022-09-28T20:14:42.491Z,93.10
2022-09-28T20:17:28.075Z,93.10
2022-09-28T20:20:13.761Z,93.10
2022-09-28T20:22:59.529Z,93.10
2022-09-28T20:25:45.347Z,93.10
2022-09-28T20:28:31.063Z,93.20
2022-09-28T20:31:19.949Z,93.20
2022-09-28T20:34:06.891Z,93.20
2022-09-28T20:36:52.507Z,93.20
2022-09-28T20:39:41.591Z,93.20
2022-09-28T20:42:31.223Z,93.30
2022-09-28T20:45:16.739Z,93.30
2022-09-28T20:48:07.114Z,93.40
2022-09-28T20:51:04.212Z,93.40
2022-09-28T20:53:55.316Z,93.40
2022-09-28T20:56:41.043Z,93.60
2022-09-28T20:59:31.254Z,93.50
2022-09-28T21:02:20.928Z,93.50
2022-09-28T21:05:07.056Z,93.50
2022-09-28T21:07:52.687Z,93.50
2022-09-28T21:10:38.042Z,93.50
2022-09-28T21:13:24.324Z,93.50
2022-09-28T21:16:16.731Z,93.50
2022-09-28T21:19:03.238Z,93.50
2022-09-28T21:21:48.563Z,93.50
2022-09-28T21:24:34.173Z,93.50
2022-09-28T21:27:19.597Z,93.40
2022-09-28T21:30:05.751Z,93.30
2022-09-28T21:32:52.432Z,93.40
2022-09-28T21:35:41.080Z,93.40
2022-09-28T21:38:26.313Z,93.30
2022-09-28T21:41:11.681Z,93.30
2022-09-28T21:43:57.355Z,93.30
2022-09-28T21:46:43.050Z,93.30
2022-09-28T21:49:28.422Z,93.30
2022-09-28T21:52:13.748Z,93.50
2022-09-28T21:54:59.289Z,93.60
2022-09-28T21:57:51.645Z,93.20
2022-09-28T22:00:36.964Z,93.30
2022-09-28T22:03:22.323Z,93.30
2022-09-28T22:06:08.847Z,93.30
2022-09-28T22:08:54.801Z,93.20
2022-09-28T22:11:43.744Z,93.10
2022-09-28T22:14:29.177Z,93.10
2022-09-28T22:17:14.812Z,93.10
2022-09-28T22:20:00.671Z,93.10
2022-09-28T22:22:50.165Z,93.20
2022-09-28T22:25:35.763Z,93.30
2022-09-28T22:28:21.083Z,93.30
2022-09-28T22:31:09.241Z,93.40
2022-09-28T22:33:56.577Z,93.90
2022-09-28T22:36:42.107Z,93.60
2022-09-28T22:39:27.527Z,93.80
2022-09-28T22:42:13.138Z,93.90
2022-09-28T22:44:58.491Z,94.00
2022-09-28T22:47:43.882Z,94.10
2022-09-28T22:50:29.409Z,94.20
2022-09-28T22:53:15.197Z,94.20
2022-09-28T22:56:01.498Z,94.40
2022-09-28T22:58:46.910Z,94.50
2022-09-28T23:01:32.539Z,94.50
2022-09-28T23:04:19.379Z,94.40
2022-09-28T23:07:04.923Z,94.40
2022-09-28T23:09:53.504Z,94.50
2022-09-28T23:12:38.953Z,94.50
2022-09-28T23:15:25.232Z,94.60
2022-09-28T23:18:10.728Z,94.70
2022-09-28T23:20:58.726Z,94.70
2022-09-28T23:23:46.492Z,94.90
2022-09-28T23:26:34.129Z,95.00
2022-09-28T23:29:19.386Z,95.10
2022-09-28T23:32:04.743Z,95.30
2022-09-28T23:34:50.475Z,95.30
2022-09-28T23:37:36.058Z,95.20
2022-09-28T23:40:21.267Z,95.40
2022-09-28T23:43:07.819Z,95.40
2022-09-28T23:45:53.484Z,95.40
2022-09-28T23:48:38.905Z,95.40
2022-09-28T23:51:24.866Z,95.50
2022-09-28T23:54:10.213Z,95.60
2022-09-28T23:56:55.811Z,95.80
2022-09-28T23:59:41.225Z,95.90
